Terminal Aerodrome Forecast
Issued by NWS Riverton, WY

Home | Current Version | Previous Version | Text Only | Print | Product List | Glossary On
Versions: 1 2 3 4 5 6 7 8 9 10 11 12 13
000
FTUS45 KRIW 200500
TAFRIW
TAF
KRIW 200527Z 2006/2106 29011KT P6SM VCSH SCT080 BKN120
     FM201100 26007KT P6SM SCT120
     FM202000 28012KT P6SM FEW080 SCT120=

USA.gov is the U.S. government's official web portal to all federal, state and local government web resources and services.